Anna — D5LB6 — position and weather

sailwx.info

Track history (hours):
 
Tides and Currents Weather Stations Pressure Air Temp Water Temp Dewpoint Dewpoint Depression Visibility Wind Speed Wind Dir Waves Ship Positions

Anna

Last reported at 2018-Apr-06 20:50 UTC. Time now 2018-Apr-27 01:07 UTC.
Position N 01°15' E 103°60'.
Warning: this ship's position is 20 days out of date.

Length 189 m; draft 12.2 m.

Type: Cargo ship. MMSI: 636017462.

Date/timePositionNaut miles runAvg speedWind from/ knotsBaromVisibWave heightAir tempDewpointWater temp
2018-Apr-06 20:50N 01°15' E 103°60'411.9
2018-Apr-06 20:30N 01°13' E 103°56'611.8
2018-Apr-06 20:00N 01°11' E 103°51'611.8
2018-Apr-06 19:30N 01°08' E 103°46'611.1
2018-Apr-06 19:00N 01°04' E 103°42'5 9.4
2018-Apr-06 18:29N 01°04' E 103°37'511.4
2018-Apr-06 18:00N 01°07' E 103°32'611.1
2018-Apr-06 17:29N 01°10' E 103°27'610.5
2018-Apr-06 16:58N 01°13' E 103°23'611.0
2018-Apr-06 16:28N 01°17' E 103°18'  
Track history (hours):
 
Tides and Currents Weather Stations Pressure Air Temp Water Temp Dewpoint Dewpoint Depression Visibility Wind Speed Wind Dir Waves Ship Positions

Anna

Last reported at 2018-Apr-06 20:50 UTC. Time now 2018-Apr-27 01:07 UTC.
Position N 01°15' E 103°60'.
Warning: this ship's position is 20 days out of date.

Length 189 m; draft 12.2 m.

Type: Cargo ship. MMSI: 636017462.

Date/timePositionNaut miles runAvg speedWind from/ knotsBaromVisibWave heightAir tempDewpointWater temp
2018-Apr-06 20:50N 01°15' E 103°60'411.9
2018-Apr-06 20:30N 01°13' E 103°56'611.8
2018-Apr-06 20:00N 01°11' E 103°51'611.8
2018-Apr-06 19:30N 01°08' E 103°46'611.1
2018-Apr-06 19:00N 01°04' E 103°42'5 9.4
2018-Apr-06 18:29N 01°04' E 103°37'511.4
2018-Apr-06 18:00N 01°07' E 103°32'611.1
2018-Apr-06 17:29N 01°10' E 103°27'610.5
2018-Apr-06 16:58N 01°13' E 103°23'611.0
2018-Apr-06 16:28N 01°17' E 103°18'  

Dump ship's entire track history